createdAt,value
2019-03-24T00:02:23.498Z,71.80
2019-03-24T00:04:54.941Z,71.56
2019-03-24T00:07:26.696Z,71.32
2019-03-24T00:09:58.249Z,71.31
2019-03-24T00:12:30.560Z,71.45
2019-03-24T00:15:02.071Z,71.46
2019-03-24T00:17:33.843Z,71.55
2019-03-24T00:20:06.712Z,71.51
2019-03-24T00:22:38.591Z,71.34
2019-03-24T00:25:10.252Z,71.36
2019-03-24T00:27:41.685Z,71.38
2019-03-24T00:30:13.562Z,71.46
2019-03-24T00:32:44.898Z,71.56
2019-03-24T00:35:16.574Z,71.86
2019-03-24T00:37:48.740Z,72.22
2019-03-24T00:40:20.301Z,72.54
2019-03-24T00:42:52.151Z,72.90
2019-03-24T00:45:23.918Z,73.24
2019-03-24T00:47:55.475Z,73.42
2019-03-24T00:50:27.221Z,73.63
2019-03-24T00:52:58.878Z,73.75
2019-03-24T00:55:30.651Z,73.94
2019-03-24T00:58:02.122Z,74.10
2019-03-24T01:00:47.809Z,74.23
2019-03-24T01:03:19.349Z,74.37
2019-03-24T01:05:52.322Z,74.49
2019-03-24T01:08:23.986Z,74.55
2019-03-24T01:10:55.761Z,74.52
2019-03-24T01:13:27.206Z,74.48
2019-03-24T01:15:58.969Z,74.42
2019-03-24T01:18:30.612Z,74.41
2019-03-24T01:21:02.178Z,74.22
2019-03-24T01:23:34.145Z,73.92
2019-03-24T01:26:05.904Z,73.66
2019-03-24T01:28:37.542Z,73.56
2019-03-24T01:31:09.427Z,73.50
2019-03-24T01:33:41.288Z,73.48
2019-03-24T01:36:12.926Z,73.23
2019-03-24T01:38:44.804Z,73.04
2019-03-24T01:41:16.566Z,72.92
2019-03-24T01:43:48.122Z,72.73
2019-03-24T01:46:19.895Z,72.50
2019-03-24T01:48:51.553Z,72.42
2019-03-24T01:51:23.301Z,72.34
2019-03-24T01:53:55.146Z,72.29
2019-03-24T01:56:26.766Z,72.01
2019-03-24T01:58:58.561Z,71.83
2019-03-24T02:01:30.322Z,71.69
2019-03-24T02:04:02.094Z,71.53
2019-03-24T02:06:33.859Z,71.34
2019-03-24T02:09:07.461Z,71.22
2019-03-24T02:11:38.893Z,71.09
2019-03-24T02:14:10.873Z,71.12
2019-03-24T02:16:42.516Z,71.04
2019-03-24T02:19:14.301Z,71.05
2019-03-24T02:21:46.064Z,70.84
2019-03-24T02:24:17.912Z,70.87
2019-03-24T02:26:49.573Z,70.85
2019-03-24T02:29:21.431Z,70.96
2019-03-24T02:31:53.294Z,70.87
2019-03-24T02:34:24.749Z,70.92
2019-03-24T02:36:56.489Z,70.82
2019-03-24T02:39:28.168Z,70.70
2019-03-24T02:41:59.717Z,70.63
2019-03-24T02:44:31.297Z,70.72
2019-03-24T02:47:03.126Z,70.54
2019-03-24T02:49:34.804Z,70.33
2019-03-24T02:52:06.643Z,70.28
2019-03-24T02:54:38.316Z,70.21
2019-03-24T02:57:09.765Z,70.09
2019-03-24T02:59:41.659Z,69.97
2019-03-24T03:02:13.376Z,70.24
2019-03-24T03:04:44.945Z,70.39
2019-03-24T03:07:17.823Z,70.76
2019-03-24T03:09:49.595Z,71.03
2019-03-24T03:12:21.025Z,71.24
2019-03-24T03:14:52.498Z,71.46
2019-03-24T03:17:24.136Z,71.60
2019-03-24T03:19:55.998Z,71.79
2019-03-24T03:22:27.586Z,71.91
2019-03-24T03:24:59.449Z,72.12
2019-03-24T03:27:31.097Z,72.32
2019-03-24T03:30:02.767Z,72.54
2019-03-24T03:32:34.510Z,72.72
2019-03-24T03:35:07.429Z,72.80
2019-03-24T03:37:38.858Z,72.84
2019-03-24T03:40:10.522Z,72.86
2019-03-24T03:42:42.379Z,72.91
2019-03-24T03:45:17.315Z,72.92
2019-03-24T03:47:49.174Z,72.83
2019-03-24T03:50:20.941Z,72.81
2019-03-24T03:52:52.683Z,72.76
2019-03-24T03:55:24.776Z,72.70
2019-03-24T03:57:56.217Z,72.65
2019-03-24T04:00:36.173Z,72.73
2019-03-24T04:03:07.728Z,72.64
2019-03-24T04:05:39.584Z,72.61
2019-03-24T04:08:11.244Z,72.49
2019-03-24T04:10:43.070Z,72.43
2019-03-24T04:13:14.874Z,72.46
2019-03-24T04:15:46.424Z,72.47
2019-03-24T04:18:18.162Z,72.47
2019-03-24T04:20:49.635Z,72.36
2019-03-24T04:23:21.594Z,72.32
2019-03-24T04:25:53.229Z,72.27
2019-03-24T04:28:24.912Z,72.27
2019-03-24T04:30:56.778Z,72.20
2019-03-24T04:33:28.514Z,72.08
2019-03-24T04:36:00.091Z,72.04
2019-03-24T04:38:31.950Z,72.00
2019-03-24T04:41:03.608Z,71.94
2019-03-24T04:43:35.246Z,71.80
2019-03-24T04:46:07.127Z,71.58
2019-03-24T04:48:38.664Z,71.40
2019-03-24T04:51:10.444Z,71.11
2019-03-24T04:53:42.098Z,70.88
2019-03-24T04:56:13.656Z,70.53
2019-03-24T04:58:45.400Z,70.42
2019-03-24T05:01:17.050Z,70.42
2019-03-24T05:03:48.919Z,70.50
2019-03-24T05:06:20.676Z,70.51
2019-03-24T05:08:52.591Z,70.50
2019-03-24T05:11:24.300Z,70.32
2019-03-24T05:13:56.062Z,70.04
2019-03-24T05:16:27.733Z,69.69
2019-03-24T05:18:59.475Z,69.48
2019-03-24T05:21:31.282Z,69.12
2019-03-24T05:24:03.107Z,69.05
2019-03-24T05:26:34.759Z,68.67
2019-03-24T05:29:06.525Z,68.64
2019-03-24T05:31:38.296Z,68.63
2019-03-24T05:34:09.748Z,68.40
2019-03-24T05:36:41.618Z,67.99
2019-03-24T05:39:13.274Z,67.26
2019-03-24T05:41:45.123Z,66.39
2019-03-24T05:44:16.747Z,65.91
2019-03-24T05:46:48.637Z,65.82
2019-03-24T05:49:20.309Z,65.38
2019-03-24T05:51:51.971Z,65.32
2019-03-24T05:54:23.365Z,65.21
2019-03-24T05:56:55.190Z,64.69
2019-03-24T05:59:26.845Z,64.63
2019-03-24T06:01:58.614Z,63.25
2019-03-24T06:04:30.451Z,63.04
2019-03-24T06:07:02.021Z,62.86
2019-03-24T06:09:35.110Z,62.53
2019-03-24T06:12:06.871Z,61.97
2019-03-24T06:14:38.302Z,61.53
2019-03-24T06:17:10.185Z,61.46
2019-03-24T06:19:41.930Z,61.13
2019-03-24T06:22:13.582Z,60.17
2019-03-24T06:24:45.264Z,60.66
2019-03-24T06:27:17.215Z,59.80
2019-03-24T06:29:48.786Z,59.29
2019-03-24T06:32:20.518Z,59.66
2019-03-24T06:34:52.179Z,59.32
2019-03-24T06:37:23.855Z,59.51
2019-03-24T06:39:55.646Z,59.43
2019-03-24T06:42:29.018Z,59.56
2019-03-24T06:45:00.656Z,58.88
2019-03-24T06:47:32.318Z,58.36
2019-03-24T06:50:05.810Z,57.43
2019-03-24T06:52:37.169Z,56.65
2019-03-24T06:55:08.925Z,56.34
2019-03-24T06:57:40.782Z,55.84
2019-03-24T07:00:12.647Z,55.50
2019-03-24T07:02:44.220Z,54.50
2019-03-24T07:05:16.192Z,53.91
2019-03-24T07:07:47.638Z,52.99
2019-03-24T07:10:19.198Z,52.90
2019-03-24T07:12:51.538Z,52.67
2019-03-24T07:15:23.224Z,52.09
2019-03-24T07:17:55.081Z,51.45
2019-03-24T07:20:26.840Z,50.54
2019-03-24T07:22:58.275Z,50.38
2019-03-24T07:25:29.846Z,50.61
2019-03-24T07:28:01.610Z,50.35
2019-03-24T07:30:34.128Z,50.92
2019-03-24T07:33:05.842Z,50.21
2019-03-24T07:35:37.430Z,50.15
2019-03-24T07:38:09.153Z,50.34
2019-03-24T07:40:40.384Z,49.50
2019-03-24T07:43:12.286Z,49.94
2019-03-24T07:45:46.788Z,49.35
2019-03-24T07:48:19.621Z,50.51
2019-03-24T07:50:51.235Z,50.41
2019-03-24T07:53:22.968Z,50.13
2019-03-24T07:55:54.645Z,50.23
2019-03-24T07:58:26.379Z,50.56
2019-03-24T08:00:57.899Z,50.17
2019-03-24T08:03:29.406Z,49.38
2019-03-24T08:06:01.067Z,48.73
2019-03-24T08:08:32.621Z,49.97
2019-03-24T08:11:04.285Z,49.97
2019-03-24T08:13:35.930Z,50.54
2019-03-24T08:16:07.369Z,51.16
2019-03-24T08:18:38.862Z,51.38
2019-03-24T08:21:10.491Z,50.91
2019-03-24T08:23:42.145Z,50.51
2019-03-24T08:26:14.079Z,50.26
2019-03-24T08:28:45.471Z,48.79
2019-03-24T08:31:17.223Z,49.47
2019-03-24T08:33:49.578Z,49.50
2019-03-24T08:36:21.270Z,49.36
2019-03-24T08:38:53.007Z,49.43
2019-03-24T08:41:24.659Z,47.46
2019-03-24T08:43:56.227Z,46.82
2019-03-24T08:46:29.000Z,46.82
2019-03-24T08:49:01.709Z,46.73
2019-03-24T08:51:33.011Z,45.24
2019-03-24T08:54:04.699Z,44.17
2019-03-24T08:56:36.379Z,43.57
2019-03-24T08:59:08.090Z,43.05
2019-03-24T09:01:39.864Z,43.26
2019-03-24T09:04:12.111Z,42.63
2019-03-24T09:06:43.673Z,42.61
2019-03-24T09:09:15.189Z,41.71
2019-03-24T09:11:46.433Z,41.11
2019-03-24T09:14:17.764Z,40.69
2019-03-24T09:16:50.112Z,41.21
2019-03-24T09:19:21.458Z,41.29
2019-03-24T09:21:53.123Z,40.88
2019-03-24T09:24:24.655Z,40.79
2019-03-24T09:26:56.301Z,40.65
2019-03-24T09:29:27.761Z,40.42
2019-03-24T09:31:59.338Z,40.82
2019-03-24T09:34:30.970Z,40.62
2019-03-24T09:37:02.644Z,40.40
2019-03-24T09:39:34.103Z,40.16
2019-03-24T09:42:05.855Z,41.22
2019-03-24T09:44:37.309Z,41.06
2019-03-24T09:47:09.168Z,40.67
2019-03-24T09:49:40.839Z,41.04
2019-03-24T09:52:12.283Z,40.88
2019-03-24T09:54:43.833Z,40.82
2019-03-24T09:57:15.701Z,40.77
2019-03-24T09:59:47.845Z,40.22
2019-03-24T10:02:19.103Z,40.06
2019-03-24T10:04:50.967Z,39.54
2019-03-24T10:07:22.199Z,39.54
2019-03-24T10:09:53.851Z,39.95
2019-03-24T10:12:25.528Z,38.86
2019-03-24T10:14:56.960Z,39.16
2019-03-24T10:17:28.426Z,39.57
2019-03-24T10:19:59.984Z,38.88
2019-03-24T10:22:32.075Z,39.42
2019-03-24T10:25:03.805Z,39.03
2019-03-24T10:27:35.756Z,38.78
2019-03-24T10:30:08.151Z,38.83
2019-03-24T10:32:39.738Z,39.08
2019-03-24T10:35:11.659Z,39.01
2019-03-24T10:37:47.628Z,39.30
2019-03-24T10:40:28.549Z,39.59
2019-03-24T10:42:55.748Z,39.67
2019-03-24T10:45:27.501Z,39.88
2019-03-24T10:47:59.158Z,39.57
2019-03-24T10:50:31.003Z,40.24
2019-03-24T10:53:02.994Z,40.75
2019-03-24T10:55:35.205Z,40.39
2019-03-24T10:58:06.762Z,40.11
2019-03-24T11:00:42.458Z,40.36
2019-03-24T11:03:13.906Z,40.12
2019-03-24T11:05:45.660Z,39.87
2019-03-24T11:08:17.431Z,39.23
2019-03-24T11:10:49.193Z,39.11
2019-03-24T11:13:21.051Z,38.85
2019-03-24T11:15:52.918Z,39.61
2019-03-24T11:18:24.672Z,38.80
2019-03-24T11:20:56.327Z,38.30
2019-03-24T11:23:27.777Z,38.61
2019-03-24T11:25:59.561Z,38.80
2019-03-24T11:28:31.406Z,38.97
2019-03-24T11:31:03.057Z,38.25
2019-03-24T11:33:34.919Z,38.45
2019-03-24T11:36:06.657Z,38.63
2019-03-24T11:38:38.334Z,37.57
2019-03-24T11:41:11.323Z,37.47
2019-03-24T11:43:44.296Z,37.72
2019-03-24T11:46:16.174Z,37.77
2019-03-24T11:48:47.929Z,37.59
2019-03-24T11:51:19.587Z,37.50
2019-03-24T11:53:51.427Z,37.55
2019-03-24T11:56:24.529Z,37.67
2019-03-24T11:58:56.362Z,36.89
2019-03-24T12:01:37.928Z,36.39
2019-03-24T12:04:01.547Z,36.17
2019-03-24T12:06:33.116Z,36.43
2019-03-24T12:09:06.324Z,36.48
2019-03-24T12:11:37.736Z,36.97
2019-03-24T12:14:09.632Z,37.23
2019-03-24T12:16:41.154Z,38.09
2019-03-24T12:19:12.833Z,38.15
2019-03-24T12:21:44.446Z,38.22
2019-03-24T12:24:16.147Z,38.44
2019-03-24T12:26:47.805Z,38.68
2019-03-24T12:29:19.681Z,38.54
2019-03-24T12:31:51.204Z,37.98
2019-03-24T12:34:23.082Z,38.47
2019-03-24T12:36:54.746Z,39.10
2019-03-24T12:39:26.398Z,38.28
2019-03-24T12:41:58.154Z,38.79
2019-03-24T12:44:29.688Z,38.39
2019-03-24T12:47:01.458Z,38.50
2019-03-24T12:49:34.252Z,38.99
2019-03-24T12:52:06.100Z,38.66
2019-03-24T12:54:37.875Z,38.66
2019-03-24T12:57:09.438Z,38.51
2019-03-24T12:59:41.602Z,38.71
2019-03-24T13:02:13.154Z,38.67
2019-03-24T13:04:44.921Z,37.93
2019-03-24T13:07:16.469Z,37.63
2019-03-24T13:09:47.912Z,37.65
2019-03-24T13:12:19.899Z,37.67
2019-03-24T13:14:51.638Z,38.00
2019-03-24T13:17:24.109Z,38.44
2019-03-24T13:19:55.989Z,38.52
2019-03-24T13:22:27.745Z,38.47
2019-03-24T13:24:59.632Z,39.29
2019-03-24T13:27:31.148Z,39.95
2019-03-24T13:30:03.010Z,40.15
2019-03-24T13:32:35.099Z,40.25
2019-03-24T13:35:06.836Z,40.71
2019-03-24T13:37:38.446Z,40.45
2019-03-24T13:40:10.061Z,39.88
2019-03-24T13:42:41.392Z,39.99
2019-03-24T13:45:12.757Z,40.23
2019-03-24T13:47:44.524Z,40.43
2019-03-24T13:50:16.179Z,40.47
2019-03-24T13:52:47.980Z,40.57
2019-03-24T13:55:19.521Z,40.54
2019-03-24T13:57:51.040Z,41.01
2019-03-24T14:00:22.982Z,41.11
2019-03-24T14:02:54.745Z,41.21
2019-03-24T14:05:26.726Z,41.24
2019-03-24T14:07:59.595Z,41.20
2019-03-24T14:10:31.994Z,41.30
2019-03-24T14:13:03.540Z,41.31
2019-03-24T14:15:35.079Z,41.32
2019-03-24T14:18:06.959Z,41.50
2019-03-24T14:20:43.691Z,41.77
2019-03-24T14:23:12.507Z,42.25
2019-03-24T14:25:44.281Z,42.29
2019-03-24T14:28:17.477Z,42.46
2019-03-24T14:30:50.438Z,42.56
2019-03-24T14:33:22.526Z,42.90
2019-03-24T14:35:54.110Z,43.17
2019-03-24T14:38:25.823Z,43.40
2019-03-24T14:40:57.789Z,43.63
2019-03-24T14:43:29.476Z,43.88
2019-03-24T14:46:01.001Z,44.38
2019-03-24T14:48:32.780Z,44.60
2019-03-24T14:51:04.518Z,44.75
2019-03-24T14:53:36.170Z,44.89
2019-03-24T14:56:08.279Z,45.39
2019-03-24T14:58:40.309Z,45.58
2019-03-24T15:01:11.879Z,45.69
2019-03-24T15:03:43.736Z,45.93
2019-03-24T15:06:15.497Z,45.93
2019-03-24T15:08:47.255Z,46.08
2019-03-24T15:11:18.912Z,46.23
2019-03-24T15:13:50.662Z,45.74
2019-03-24T15:16:22.541Z,45.88
2019-03-24T15:18:55.110Z,46.15
2019-03-24T15:21:26.569Z,46.47
2019-03-24T15:24:16.471Z,48.46
2019-03-24T15:26:48.598Z,47.58
2019-03-24T15:29:21.922Z,46.85
2019-03-24T15:31:54.288Z,46.42
2019-03-24T15:34:26.514Z,46.41
2019-03-24T15:36:58.462Z,46.68
2019-03-24T15:39:30.276Z,47.13
2019-03-24T15:42:02.127Z,47.06
2019-03-24T15:44:33.783Z,47.68
2019-03-24T15:47:05.657Z,47.84
2019-03-24T15:49:38.521Z,48.05
2019-03-24T15:52:10.281Z,48.26
2019-03-24T15:54:41.911Z,49.33
2019-03-24T15:57:13.505Z,49.85
2019-03-24T15:59:44.946Z,50.92
2019-03-24T16:02:16.610Z,51.88
2019-03-24T16:04:48.270Z,52.23
2019-03-24T16:07:19.917Z,52.38
2019-03-24T16:09:51.316Z,53.13
2019-03-24T16:12:22.934Z,53.54
2019-03-24T16:14:54.488Z,53.70
2019-03-24T16:17:26.251Z,53.30
2019-03-24T16:19:57.959Z,53.13
2019-03-24T16:22:29.506Z,53.52
2019-03-24T16:25:01.214Z,53.99
2019-03-24T16:27:35.018Z,54.29
2019-03-24T16:30:07.094Z,54.36
2019-03-24T16:32:38.863Z,54.05
2019-03-24T16:35:10.447Z,54.33
2019-03-24T16:37:42.539Z,54.52
2019-03-24T16:40:14.263Z,54.29
2019-03-24T16:42:46.100Z,54.06
2019-03-24T16:45:17.737Z,53.96
2019-03-24T16:47:49.615Z,53.85
2019-03-24T16:50:21.349Z,53.66
2019-03-24T16:52:53.336Z,53.62
2019-03-24T16:55:25.249Z,54.08
2019-03-24T16:57:56.855Z,54.50
2019-03-24T17:00:28.510Z,54.64
2019-03-24T17:03:00.123Z,54.89
2019-03-24T17:05:31.914Z,55.18
2019-03-24T17:08:03.790Z,55.36
2019-03-24T17:10:35.541Z,55.03
2019-03-24T17:13:07.005Z,55.20
2019-03-24T17:15:38.648Z,55.14
2019-03-24T17:18:10.222Z,55.11
2019-03-24T17:20:43.515Z,55.16
2019-03-24T17:23:15.974Z,55.04
2019-03-24T17:25:47.834Z,55.18
2019-03-24T17:28:19.467Z,55.31
2019-03-24T17:30:51.073Z,55.00
2019-03-24T17:33:22.584Z,55.00
2019-03-24T17:35:54.493Z,55.19
2019-03-24T17:38:26.240Z,55.33
2019-03-24T17:40:57.684Z,55.33
2019-03-24T17:43:29.553Z,55.67
2019-03-24T17:46:01.407Z,56.00
2019-03-24T17:48:33.065Z,55.72
2019-03-24T17:51:04.825Z,55.97
2019-03-24T17:53:36.361Z,56.19
2019-03-24T17:56:08.135Z,56.61
2019-03-24T17:58:39.804Z,56.71
2019-03-24T18:01:12.970Z,56.78
2019-03-24T18:03:44.436Z,56.83
2019-03-24T18:06:16.407Z,56.84
2019-03-24T18:08:47.978Z,57.00
2019-03-24T18:11:19.729Z,57.09
2019-03-24T18:13:51.390Z,57.19
2019-03-24T18:16:23.540Z,57.32
2019-03-24T18:18:56.141Z,57.45
2019-03-24T18:21:27.990Z,57.37
2019-03-24T18:23:59.645Z,57.41
2019-03-24T18:26:31.289Z,57.62
2019-03-24T18:29:03.060Z,57.76
2019-03-24T18:31:34.705Z,57.81
2019-03-24T18:34:06.596Z,57.86
2019-03-24T18:36:38.130Z,57.83
2019-03-24T18:39:09.923Z,57.96
2019-03-24T18:41:41.766Z,58.17
2019-03-24T18:44:13.520Z,58.28
2019-03-24T18:46:45.157Z,58.38
2019-03-24T18:49:18.216Z,58.45
2019-03-24T18:51:50.010Z,58.58
2019-03-24T18:54:21.767Z,58.78
2019-03-24T18:56:53.629Z,58.87
2019-03-24T18:59:25.283Z,58.94
2019-03-24T19:01:57.069Z,59.04
2019-03-24T19:04:28.927Z,59.11
2019-03-24T19:07:01.517Z,59.15
2019-03-24T19:09:33.168Z,59.27
2019-03-24T19:12:04.925Z,59.36
2019-03-24T19:14:36.584Z,59.53
2019-03-24T19:17:10.030Z,59.70
2019-03-24T19:19:41.341Z,59.91
2019-03-24T19:22:13.090Z,59.96
2019-03-24T19:24:44.657Z,59.70
2019-03-24T19:27:16.541Z,59.50
2019-03-24T19:29:47.968Z,59.41
2019-03-24T19:32:19.536Z,59.13
2019-03-24T19:34:51.388Z,59.02
2019-03-24T19:37:23.036Z,59.11
2019-03-24T19:39:54.901Z,59.42
2019-03-24T19:42:26.546Z,59.44
2019-03-24T19:44:58.197Z,59.60
2019-03-24T19:47:30.078Z,59.98
2019-03-24T19:50:01.735Z,59.78
2019-03-24T19:52:44.292Z,59.55
2019-03-24T19:55:07.814Z,59.53
2019-03-24T19:57:39.558Z,59.53
2019-03-24T20:00:12.650Z,59.62
2019-03-24T20:02:44.324Z,60.10
2019-03-24T20:05:16.067Z,60.63
2019-03-24T20:07:48.506Z,60.90
2019-03-24T20:10:20.032Z,60.99
2019-03-24T20:12:51.653Z,61.30
2019-03-24T20:15:23.436Z,61.67
2019-03-24T20:17:55.294Z,61.80
2019-03-24T20:20:26.844Z,61.92
2019-03-24T20:22:58.445Z,62.29
2019-03-24T20:25:30.364Z,62.37
2019-03-24T20:28:01.930Z,62.73
2019-03-24T20:30:33.777Z,62.67
2019-03-24T20:33:07.290Z,62.77
2019-03-24T20:35:39.527Z,63.06
2019-03-24T20:38:12.332Z,62.94
2019-03-24T20:40:46.178Z,62.95
2019-03-24T20:43:17.812Z,63.06
2019-03-24T20:45:49.332Z,63.18
2019-03-24T20:48:21.015Z,63.64
2019-03-24T20:50:52.968Z,64.10
2019-03-24T20:53:24.332Z,64.45
2019-03-24T20:55:55.775Z,64.70
2019-03-24T20:58:27.256Z,64.75
2019-03-24T21:00:58.984Z,64.60
2019-03-24T21:03:30.742Z,64.50
2019-03-24T21:06:02.483Z,64.77
2019-03-24T21:08:33.852Z,65.02
2019-03-24T21:11:06.079Z,65.41
2019-03-24T21:13:37.574Z,65.92
2019-03-24T21:16:09.234Z,66.24
2019-03-24T21:18:41.798Z,66.51
2019-03-24T21:21:13.774Z,66.82
2019-03-24T21:23:45.634Z,67.06
2019-03-24T21:26:17.069Z,67.30
2019-03-24T21:28:50.507Z,67.65
2019-03-24T21:31:22.968Z,67.74
2019-03-24T21:33:54.512Z,67.75
2019-03-24T21:36:26.473Z,67.90
2019-03-24T21:38:58.218Z,68.03
2019-03-24T21:41:29.918Z,67.54
2019-03-24T21:44:01.338Z,68.12
2019-03-24T21:46:39.351Z,68.36
2019-03-24T21:49:11.092Z,68.69
2019-03-24T21:51:42.947Z,69.06
2019-03-24T21:54:14.803Z,69.41
2019-03-24T21:56:46.187Z,69.68
2019-03-24T21:59:17.936Z,69.79
2019-03-24T22:01:49.801Z,69.67
2019-03-24T22:04:21.453Z,69.68
2019-03-24T22:06:53.322Z,69.65
2019-03-24T22:09:24.864Z,69.71
2019-03-24T22:11:56.725Z,69.97
2019-03-24T22:14:28.269Z,70.29
2019-03-24T22:16:59.925Z,70.54
2019-03-24T22:19:32.419Z,70.83
2019-03-24T22:22:04.217Z,71.11
2019-03-24T22:24:35.932Z,71.30
2019-03-24T22:27:07.475Z,71.29
2019-03-24T22:29:39.149Z,71.24
2019-03-24T22:32:11.010Z,71.29
2019-03-24T22:34:42.683Z,71.58
2019-03-24T22:37:16.378Z,71.84
2019-03-24T22:39:48.134Z,72.04
2019-03-24T22:42:21.318Z,72.29
2019-03-24T22:44:52.782Z,72.54
2019-03-24T22:47:24.646Z,72.63
2019-03-24T22:49:56.102Z,72.77
2019-03-24T22:52:27.639Z,73.02
2019-03-24T22:54:59.396Z,73.00
2019-03-24T22:57:32.660Z,72.63
2019-03-24T23:00:06.931Z,72.20
2019-03-24T23:02:39.288Z,71.87
2019-03-24T23:05:10.755Z,71.66
2019-03-24T23:07:42.290Z,71.51
2019-03-24T23:10:13.969Z,71.46
2019-03-24T23:12:45.521Z,71.50
2019-03-24T23:15:17.161Z,71.64
2019-03-24T23:17:48.869Z,71.81
2019-03-24T23:20:20.583Z,71.98
2019-03-24T23:22:52.140Z,72.22
2019-03-24T23:25:23.923Z,72.34
2019-03-24T23:27:55.674Z,72.39
2019-03-24T23:30:27.336Z,72.33
2019-03-24T23:32:59.079Z,72.25
2019-03-24T23:35:30.745Z,72.20
2019-03-24T23:38:02.408Z,72.18
2019-03-24T23:40:34.256Z,72.16
2019-03-24T23:43:05.931Z,72.21
2019-03-24T23:45:37.421Z,72.22
2019-03-24T23:48:08.921Z,72.42
2019-03-24T23:50:40.795Z,72.53
2019-03-24T23:53:12.455Z,72.66
2019-03-24T23:55:44.321Z,72.71
2019-03-24T23:58:16.167Z,72.70
